createdAt,value
2019-02-18T00:04:34.103Z,36.93
2019-02-18T00:09:58.267Z,37.87
2019-02-18T00:15:03.230Z,34.60
2019-02-18T00:20:08.279Z,34.37
2019-02-18T00:25:13.255Z,34.03
2019-02-18T00:30:18.248Z,31.13
2019-02-18T00:35:23.210Z,31.17
2019-02-18T00:40:28.210Z,31.93
2019-02-18T00:45:33.240Z,30.17
2019-02-18T00:50:38.210Z,30.00
2019-02-18T00:55:43.205Z,30.00
2019-02-18T01:00:48.222Z,30.60
2019-02-18T01:05:53.211Z,31.67
2019-02-18T01:10:58.179Z,31.23
2019-02-18T01:16:03.182Z,31.77
2019-02-18T01:21:08.172Z,32.20
2019-02-18T01:26:13.321Z,33.33
2019-02-18T01:31:18.233Z,34.60
2019-02-18T01:36:23.292Z,31.47
2019-02-18T01:41:28.308Z,30.93
2019-02-18T01:46:33.275Z,32.87
2019-02-18T01:51:38.247Z,35.70
2019-02-18T01:56:43.206Z,40.87
2019-02-18T02:01:48.260Z,40.40
2019-02-18T02:06:53.228Z,38.50
2019-02-18T02:11:58.500Z,36.07
2019-02-18T02:17:03.463Z,34.57
2019-02-18T02:22:08.452Z,32.53
2019-02-18T02:27:14.440Z,31.47
2019-02-18T02:32:19.422Z,31.70
2019-02-18T02:37:24.479Z,28.90
2019-02-18T02:42:29.476Z,28.43
2019-02-18T02:47:34.455Z,26.30
2019-02-18T02:52:39.450Z,26.33
2019-02-18T02:57:44.688Z,24.67
2019-02-18T03:02:49.664Z,25.97
2019-02-18T03:07:54.638Z,26.70
2019-02-18T03:12:59.622Z,27.70
2019-02-18T03:18:04.595Z,27.00
2019-02-18T03:23:09.589Z,25.87
2019-02-18T03:29:03.555Z,27.87
2019-02-18T03:34:19.421Z,24.87
2019-02-18T03:39:43.467Z,24.67
2019-02-18T03:44:48.446Z,24.80
2019-02-18T03:49:53.523Z,24.30
2019-02-18T03:54:58.522Z,25.33
2019-02-18T04:00:04.009Z,23.17
2019-02-18T04:05:09.372Z,25.57
2019-02-18T04:10:15.220Z,26.30
2019-02-18T04:15:20.165Z,25.40
2019-02-18T04:20:25.137Z,25.87
2019-02-18T04:25:30.096Z,24.13
2019-02-18T04:30:35.084Z,25.67
2019-02-18T04:35:40.055Z,25.90
2019-02-18T04:40:45.023Z,25.60
2019-02-18T04:45:50.039Z,25.43
2019-02-18T04:50:54.998Z,24.37
2019-02-18T04:55:59.988Z,25.30
2019-02-18T05:01:04.959Z,24.43
2019-02-18T05:06:09.964Z,23.17
2019-02-18T05:11:14.987Z,23.17
2019-02-18T05:16:19.958Z,21.83
2019-02-18T05:21:24.943Z,24.07
2019-02-18T05:26:29.955Z,21.47
2019-02-18T05:31:34.972Z,22.77
2019-02-18T05:36:39.967Z,20.77
2019-02-18T05:41:44.953Z,21.60
2019-02-18T05:46:49.903Z,21.77
2019-02-18T05:51:54.886Z,22.13
2019-02-18T05:56:59.910Z,22.93
2019-02-18T06:02:04.878Z,21.53
2019-02-18T06:07:09.929Z,23.20
2019-02-18T06:12:14.919Z,21.43
2019-02-18T06:17:19.898Z,21.07
2019-02-18T06:22:24.941Z,22.53
2019-02-18T06:27:31.778Z,23.50
2019-02-18T06:32:36.761Z,21.60
2019-02-18T06:37:41.751Z,21.10
2019-02-18T06:42:46.792Z,22.80
2019-02-18T06:47:51.759Z,25.13
2019-02-18T06:52:56.772Z,27.70
2019-02-18T06:58:06.819Z,24.90
2019-02-18T07:03:44.761Z,24.00
2019-02-18T07:08:56.140Z,26.07
2019-02-18T07:14:01.222Z,24.63
2019-02-18T07:19:07.700Z,24.47
2019-02-18T07:24:12.729Z,24.90
2019-02-18T07:29:18.898Z,24.70
2019-02-18T07:34:25.292Z,25.73
2019-02-18T07:39:30.388Z,24.40
2019-02-18T07:44:35.409Z,22.97
2019-02-18T07:49:40.506Z,24.17
2019-02-18T07:54:45.502Z,26.17
2019-02-18T07:59:50.635Z,30.47
2019-02-18T08:04:55.911Z,29.10
2019-02-18T08:10:11.477Z,28.40
2019-02-18T08:15:08.365Z,29.40
2019-02-18T08:20:13.408Z,30.80
2019-02-18T08:25:18.397Z,31.73
2019-02-18T08:30:23.368Z,31.90
2019-02-18T08:35:28.368Z,26.27
2019-02-18T08:40:33.361Z,21.80
2019-02-18T08:45:38.340Z,20.93
2019-02-18T08:50:43.331Z,20.83
2019-02-18T08:55:48.310Z,24.97
2019-02-18T09:01:02.251Z,23.33
2019-02-18T09:06:00.244Z,24.53
2019-02-18T09:11:05.179Z,24.17
2019-02-18T09:16:10.186Z,19.87
2019-02-18T09:21:15.132Z,20.10
2019-02-18T09:26:20.114Z,18.67
2019-02-18T09:31:31.543Z,19.97
2019-02-18T09:36:36.511Z,22.50
2019-02-18T09:41:41.499Z,23.43
2019-02-18T09:46:46.470Z,27.57
2019-02-18T09:51:51.468Z,28.13
2019-02-18T09:56:56.457Z,27.03
2019-02-18T10:02:02.886Z,21.53
2019-02-18T10:07:07.858Z,22.37
2019-02-18T10:12:18.428Z,26.43
2019-02-18T10:17:19.455Z,31.57
2019-02-18T10:22:27.257Z,31.27
2019-02-18T10:27:32.254Z,29.20
2019-02-18T10:32:37.222Z,27.57
2019-02-18T10:37:42.318Z,38.50
2019-02-18T10:42:47.520Z,38.53
2019-02-18T10:47:52.507Z,41.57
2019-02-18T10:52:57.526Z,32.93
2019-02-18T10:58:02.507Z,33.83
2019-02-18T11:03:07.540Z,39.20
2019-02-18T11:08:15.037Z,33.30
2019-02-18T11:13:21.769Z,21.27
2019-02-18T11:18:26.742Z,20.67
2019-02-18T11:23:31.787Z,20.30
2019-02-18T11:28:36.744Z,17.57
2019-02-18T11:33:41.723Z,17.80
2019-02-18T11:38:46.724Z,18.93
2019-02-18T11:43:51.707Z,17.77
2019-02-18T11:48:56.913Z,39.23
2019-02-18T11:54:03.085Z,38.87
2019-02-18T11:59:08.705Z,52.37
2019-02-18T12:04:13.728Z,68.53
2019-02-18T12:09:18.834Z,68.57
2019-02-18T12:14:23.815Z,62.00
2019-02-18T12:19:28.790Z,72.73
2019-02-18T12:24:34.113Z,70.97
2019-02-18T12:29:39.334Z,71.87
2019-02-18T12:34:44.321Z,77.40
2019-02-18T12:39:49.479Z,73.77
2019-02-18T12:44:54.500Z,60.97
2019-02-18T12:49:59.487Z,64.33
2019-02-18T12:55:04.824Z,65.10
2019-02-18T13:00:11.039Z,69.83
2019-02-18T13:05:16.178Z,78.93
2019-02-18T13:10:21.162Z,72.77
2019-02-18T13:15:26.213Z,78.37
2019-02-18T13:20:31.537Z,78.10
2019-02-18T13:25:36.592Z,82.57
2019-02-18T13:30:41.568Z,85.37
2019-02-18T13:35:46.683Z,90.50
2019-02-18T13:40:51.652Z,81.93
2019-02-18T13:45:56.609Z,91.77
2019-02-18T13:51:01.570Z,81.47
2019-02-18T13:56:07.538Z,88.17
2019-02-18T14:01:12.496Z,88.17
2019-02-18T14:06:17.467Z,84.27
2019-02-18T14:11:22.443Z,75.57
2019-02-18T14:16:27.401Z,69.87
2019-02-18T14:21:32.394Z,70.07
2019-02-18T14:26:37.376Z,64.90
2019-02-18T14:31:42.327Z,54.33
2019-02-18T14:36:47.287Z,48.20
2019-02-18T14:41:52.336Z,40.40
2019-02-18T14:46:57.302Z,44.17
2019-02-18T14:52:02.273Z,42.93
2019-02-18T14:57:07.232Z,36.17
2019-02-18T15:02:12.895Z,36.47
2019-02-18T15:07:17.895Z,33.87
2019-02-18T15:12:23.322Z,28.87
2019-02-18T15:17:28.283Z,27.13
2019-02-18T15:22:33.254Z,26.43
2019-02-18T15:27:38.233Z,23.80
2019-02-18T15:32:43.190Z,23.47
2019-02-18T15:37:48.139Z,22.67
2019-02-18T15:42:53.107Z,22.47
2019-02-18T15:48:01.762Z,21.47
2019-02-18T15:53:04.626Z,20.90
2019-02-18T15:58:09.614Z,20.63
2019-02-18T16:03:14.567Z,20.37
2019-02-18T16:08:19.591Z,20.03
2019-02-18T16:13:25.146Z,21.67
2019-02-18T16:18:30.106Z,22.07
2019-02-18T16:23:35.058Z,21.73
2019-02-18T16:28:40.323Z,23.07
2019-02-18T16:33:45.283Z,21.67
2019-02-18T16:38:50.228Z,21.33
2019-02-18T16:43:55.182Z,21.13
2019-02-18T16:49:00.543Z,21.67
2019-02-18T16:54:05.496Z,21.20
2019-02-18T16:59:10.461Z,21.37
2019-02-18T17:04:15.454Z,23.60
2019-02-18T17:09:20.450Z,23.00
2019-02-18T17:14:25.406Z,22.90
2019-02-18T17:19:30.368Z,23.73
2019-02-18T17:24:35.974Z,22.60
2019-02-18T17:29:40.969Z,23.70
2019-02-18T17:34:45.920Z,27.80
2019-02-18T17:39:50.898Z,33.20
2019-02-18T17:44:55.844Z,35.33
2019-02-18T17:50:00.823Z,43.07
2019-02-18T17:55:08.416Z,43.37
2019-02-18T18:00:18.784Z,42.03
2019-02-18T18:05:24.181Z,43.50
2019-02-18T18:10:29.187Z,40.53
2019-02-18T18:15:34.333Z,38.97
2019-02-18T18:20:39.332Z,34.67
2019-02-18T18:25:44.303Z,37.87
2019-02-18T18:30:49.276Z,39.57
2019-02-18T18:35:54.615Z,41.03
2019-02-18T18:40:59.584Z,39.83
2019-02-18T18:46:04.534Z,37.20
2019-02-18T18:51:09.732Z,41.30
2019-02-18T18:56:14.782Z,36.70
2019-02-18T19:01:19.755Z,40.30
2019-02-18T19:06:24.699Z,39.10
2019-02-18T19:11:30.247Z,40.90
2019-02-18T19:16:36.469Z,41.07
2019-02-18T19:21:43.575Z,37.07
2019-02-18T19:26:48.560Z,34.03
2019-02-18T19:31:53.526Z,35.70
2019-02-18T19:36:58.483Z,34.83
2019-02-18T19:42:03.451Z,32.63
2019-02-18T19:47:08.427Z,34.00
2019-02-18T19:52:13.379Z,34.03
2019-02-18T19:57:18.492Z,33.53
2019-02-18T20:02:23.439Z,30.30
2019-02-18T20:07:29.023Z,37.23
2019-02-18T20:12:33.987Z,32.63
2019-02-18T20:17:38.961Z,31.57
2019-02-18T20:22:43.910Z,29.67
2019-02-18T20:27:49.088Z,30.37
2019-02-18T20:32:54.044Z,29.47
2019-02-18T20:37:58.995Z,30.90
2019-02-18T20:43:03.967Z,34.23
2019-02-18T20:48:09.018Z,36.70
2019-02-18T20:53:13.995Z,38.10
2019-02-18T20:58:19.106Z,40.03
2019-02-18T21:03:24.062Z,39.43
2019-02-18T21:08:29.025Z,39.97
2019-02-18T21:13:34.017Z,37.43
2019-02-18T21:18:38.981Z,34.43
2019-02-18T21:23:43.959Z,33.53
2019-02-18T21:28:49.514Z,33.77
2019-02-18T21:33:54.472Z,35.20
2019-02-18T21:38:59.547Z,35.83
2019-02-18T21:44:05.054Z,35.47
2019-02-18T21:49:10.975Z,36.90
2019-02-18T21:54:16.200Z,33.87
2019-02-18T21:59:21.099Z,40.83
2019-02-18T22:04:26.774Z,38.87
2019-02-18T22:09:31.755Z,39.00
2019-02-18T22:14:36.715Z,47.17
2019-02-18T22:19:42.381Z,58.67
2019-02-18T22:24:47.327Z,54.77
2019-02-18T22:29:52.531Z,57.33
2019-02-18T22:34:57.647Z,61.83
2019-02-18T22:40:02.634Z,65.50
2019-02-18T22:45:07.714Z,71.43
2019-02-18T22:50:12.667Z,70.50
2019-02-18T22:55:38.039Z,75.60
2019-02-18T23:01:12.955Z,87.80
2019-02-18T23:06:18.135Z,97.93
2019-02-18T23:11:23.153Z,100.60
2019-02-18T23:16:28.143Z,110.00
2019-02-18T23:21:33.114Z,107.17
2019-02-18T23:26:38.094Z,80.23
2019-02-18T23:31:43.047Z,82.87
2019-02-18T23:36:48.007Z,89.57
2019-02-18T23:41:52.971Z,103.47
2019-02-18T23:46:57.966Z,144.23
2019-02-18T23:52:02.980Z,169.63
2019-02-18T23:57:07.945Z,216.03
